Time;durP1;ratioP1;P1;durP2;ratioP2;P2;SDS_P1;SDS_P2;PMS_P1;PMS_P2;Temp;Humidity;BMP_temperature;BMP_pressure;BME280_temperature;BME280_humidity;BME280_pressure;Samples;Min_cycle;Max_cycle;Signal;HPM_P1;HPM_P2
2022/05/23 00:01:53;;;;;;;2.13;1.90;;;14.30;99.90;;;;;;5119693;28;20195;-87
2022/05/23 00:04:19;;;;;;;3.43;1.80;;;14.30;99.90;;;;;;5122238;28;20258;-87
2022/05/23 00:07:10;;;;;;;4.90;1.97;;;14.30;99.90;;;;;;5119707;28;20224;-87
2022/05/23 00:09:36;;;;;;;3.70;1.97;;;14.30;99.90;;;;;;5121677;28;20156;-87
2022/05/23 00:12:02;;;;;;;2.67;2.00;;;;;;;;;;5123288;28;20257;-87
2022/05/23 00:14:28;;;;;;;2.37;1.80;;;14.30;99.90;;;;;;5119369;28;20222;-87
2022/05/23 00:16:53;;;;;;;3.17;2.27;;;14.40;99.90;;;;;;5119691;28;20230;-87
2022/05/23 00:19:19;;;;;;;2.87;2.00;;;;;;;;;;5118477;28;20176;-87
2022/05/23 00:21:45;;;;;;;3.03;2.03;;;14.30;99.90;;;;;;5118260;28;20535;-87
2022/05/23 00:24:15;;;;;;;2.27;2.07;;;14.30;99.90;;;;;;5117966;28;20182;-88
2022/05/23 00:26:43;;;;;;;2.80;2.03;;;14.20;99.90;;;;;;5119921;28;20220;-87
2022/05/23 00:29:09;;;;;;;4.63;2.07;;;14.20;99.90;;;;;;5121511;28;20171;-87
2022/05/23 00:31:35;;;;;;;3.83;2.20;;;14.20;99.90;;;;;;5137158;28;20179;-87
2022/05/23 00:36:45;;;;;;;2.73;1.90;;;14.10;99.90;;;;;;5122445;28;20190;-87
2022/05/23 00:39:11;;;;;;;2.03;1.73;;;14.10;99.90;;;;;;5118342;28;20269;-87
2022/05/23 00:44:31;;;;;;;2.47;2.27;;;14.20;99.90;;;;;;5120349;28;20255;-87
2022/05/23 00:47:03;;;;;;;3.17;1.90;;;14.20;99.90;;;;;;5118298;28;20258;-87
2022/05/23 00:49:34;;;;;;;2.57;1.80;;;14.20;99.90;;;;;;5118233;28;20652;-87
2022/05/23 00:52:05;;;;;;;3.83;2.20;;;14.20;99.90;;;;;;5118368;28;20651;-87
2022/05/23 00:54:46;;;;;;;4.90;2.30;;;14.00;99.90;;;;;;5125903;28;20173;-87
2022/05/23 00:57:28;;;;;;;2.10;1.90;;;14.00;99.90;;;;;;5137119;28;20187;-87
2022/05/23 00:59:54;;;;;;;2.93;2.30;;;13.90;99.90;;;;;;5120062;27;20667;-87
2022/05/23 01:02:20;;;;;;;3.00;2.07;;;13.90;99.90;;;;;;5117587;28;20175;-87
2022/05/23 01:04:47;;;;;;;3.93;2.20;;;13.90;99.90;;;;;;5117421;28;20687;-87
2022/05/23 01:07:13;;;;;;;3.50;2.10;;;13.90;99.90;;;;;;5117736;28;20180;-87
2022/05/23 01:09:39;;;;;;;3.67;2.00;;;13.90;99.90;;;;;;5117636;28;20171;-87
2022/05/23 01:12:05;;;;;;;3.17;2.17;;;13.90;99.90;;;;;;5115621;28;20629;-87
2022/05/23 01:14:54;;;;;;;2.27;2.00;;;14.00;99.90;;;;;;5116453;28;20225;-87
2022/05/23 01:17:21;;;;;;;2.40;2.20;;;14.00;99.90;;;;;;5116574;28;20336;-87
2022/05/23 01:19:47;;;;;;;3.67;2.37;;;14.00;99.90;;;;;;5116838;28;20532;-87
2022/05/23 01:22:25;;;;;;;3.50;2.30;;;14.00;99.90;;;;;;5117116;28;20175;-87
2022/05/23 01:25:17;;;;;;;3.50;2.07;;;13.90;99.90;;;;;;5118215;28;20188;-87
2022/05/23 01:27:43;;;;;;;2.30;2.10;;;13.90;99.90;;;;;;5113671;28;20189;-87
2022/05/23 01:30:10;;;;;;;2.47;2.00;;;13.80;99.90;;;;;;5116765;28;20243;-87
2022/05/23 01:32:38;;;;;;;3.47;2.20;;;13.80;99.90;;;;;;5120908;28;20252;-86
2022/05/23 01:35:05;;;;;;;3.00;2.13;;;13.80;99.90;;;;;;5129059;28;20207;-88
2022/05/23 01:37:31;;;;;;;2.40;1.97;;;13.80;99.90;;;;;;5116986;28;20210;-87
2022/05/23 01:39:57;;;;;;;3.77;2.10;;;13.80;99.90;;;;;;5117206;28;20180;-87
2022/05/23 01:42:23;;;;;;;2.93;2.10;;;;;;;;;;5118320;28;20176;-87
2022/05/23 01:44:49;;;;;;;3.60;2.07;;;13.80;99.90;;;;;;5117176;28;20329;-87
2022/05/23 01:47:19;;;;;;;3.50;2.03;;;13.80;99.90;;;;;;5116994;28;20213;-87
2022/05/23 01:49:45;;;;;;;3.90;2.20;;;13.70;99.90;;;;;;5117798;28;20171;-87
2022/05/23 01:52:12;;;;;;;3.93;2.27;;;13.70;99.90;;;;;;5119166;28;20271;-86
2022/05/23 01:54:38;;;;;;;4.10;2.13;;;13.70;99.90;;;;;;5117451;28;20222;-86
2022/05/23 01:57:05;;;;;;;2.17;1.90;;;13.70;99.90;;;;;;5118134;28;20199;-87
2022/05/23 02:02:16;;;;;;;3.63;2.03;;;13.70;99.90;;;;;;5120442;28;20234;-87
2022/05/23 02:04:42;;;;;;;4.50;2.20;;;13.70;99.90;;;;;;5123396;28;20260;-86
2022/05/23 02:07:08;;;;;;;3.23;1.97;;;13.70;99.90;;;;;;5127854;28;20243;-86
2022/05/23 02:09:34;;;;;;;2.57;2.23;;;13.70;99.90;;;;;;5136091;28;20186;-86
2022/05/23 02:12:01;;;;;;;2.33;2.00;;;13.60;99.90;;;;;;5127173;28;20179;-87
2022/05/23 02:14:27;;;;;;;3.57;2.33;;;13.50;99.90;;;;;;5126418;28;20187;-87
2022/05/23 02:16:53;;;;;;;4.60;2.43;;;13.50;99.90;;;;;;5126167;28;20195;-87
2022/05/23 02:19:19;;;;;;;2.57;2.27;;;13.50;99.90;;;;;;5122366;28;20171;-86
2022/05/23 02:21:45;;;;;;;2.40;2.07;;;;;;;;;;5116159;28;20178;-87
2022/05/23 02:24:10;;;;;;;3.43;2.27;;;13.50;99.90;;;;;;5115421;28;20303;-87
2022/05/23 02:26:36;;;;;;;2.63;2.27;;;13.50;99.90;;;;;;5116234;28;20260;-88
2022/05/23 02:29:03;;;;;;;2.83;2.47;;;13.50;99.90;;;;;;5116900;28;20571;-87
2022/05/23 02:31:29;;;;;;;3.73;2.20;;;13.50;99.90;;;;;;5115529;28;20175;-87
2022/05/23 02:33:55;;;;;;;2.60;2.33;;;;;;;;;;5116518;28;20533;-86
2022/05/23 02:36:21;;;;;;;4.43;2.40;;;;;;;;;;5116881;28;20204;-87
2022/05/23 02:38:47;;;;;;;2.67;2.30;;;;;;;;;;5116496;28;20586;-87
2022/05/23 02:41:13;;;;;;;2.20;2.00;;;;;;;;;;5116125;28;20180;-86
2022/05/23 02:43:39;;;;;;;3.10;2.40;;;;;;;;;;5116768;28;20210;-86
2022/05/23 02:46:05;;;;;;;4.40;2.40;;;;;;;;;;5116912;28;20669;-86
2022/05/23 02:48:31;;;;;;;3.30;2.33;;;;;;;;;;5117502;28;20261;-86
2022/05/23 02:50:57;;;;;;;4.03;2.40;;;13.60;99.90;;;;;;5117284;28;20278;-86
2022/05/23 02:53:23;;;;;;;5.63;2.30;;;;;;;;;;5117500;28;20631;-87
2022/05/23 02:55:49;;;;;;;3.43;2.73;;;;;;;;;;5119818;28;20248;-86
2022/05/23 02:58:15;;;;;;;3.43;2.60;;;13.60;99.90;;;;;;5118390;28;20171;-87
2022/05/23 03:00:41;;;;;;;3.50;2.27;;;;;;;;;;5123023;28;20610;-86
2022/05/23 03:03:08;;;;;;;6.43;2.40;;;13.60;99.90;;;;;;5116245;28;20179;-87
2022/05/23 03:05:52;;;;;;;6.17;2.20;;;13.60;99.90;;;;;;5116657;28;20199;-86
2022/05/23 03:08:24;;;;;;;4.97;2.63;;;13.60;99.90;;;;;;5116246;28;20224;-86
2022/05/23 03:10:51;;;;;;;3.17;2.30;;;13.60;99.90;;;;;;5116360;28;20164;-87
2022/05/23 03:13:17;;;;;;;2.63;2.10;;;13.60;99.90;;;;;;5132170;28;20209;-86
2022/05/23 03:15:43;;;;;;;6.27;2.47;;;13.60;99.90;;;;;;5117697;28;20587;-87
2022/05/23 03:18:09;;;;;;;3.13;2.60;;;13.60;99.90;;;;;;5116465;28;20179;-87
2022/05/23 03:20:35;;;;;;;2.63;2.30;;;13.50;99.90;;;;;;5116692;28;20224;-87
2022/05/23 03:28:34;;;;;;;4.20;2.53;;;13.50;99.90;;;;;;5118201;28;20190;-88
2022/05/23 03:31:00;;;;;;;3.03;2.30;;;;;;;;;;5116647;28;20176;-87
2022/05/23 03:33:27;;;;;;;2.60;2.13;;;13.50;99.90;;;;;;5116423;28;20180;-87
2022/05/23 03:35:53;;;;;;;4.80;2.63;;;;;;;;;;5115702;28;20206;-87
2022/05/23 03:38:18;;;;;;;3.00;2.10;;;13.40;99.90;;;;;;5117451;28;20179;-86
2022/05/23 03:40:45;;;;;;;2.80;2.37;;;;;;;;;;5118625;28;20234;-87
2022/05/23 03:43:11;;;;;;;3.90;2.47;;;;;;;;;;5119128;28;20211;-87
2022/05/23 03:45:37;;;;;;;4.57;2.23;;;13.50;99.90;;;;;;5116443;28;20202;-87
2022/05/23 03:48:03;;;;;;;3.17;2.40;;;13.50;99.90;;;;;;5118471;28;20192;-87
2022/05/23 03:50:31;;;;;;;3.93;2.10;;;13.50;99.90;;;;;;5117730;28;20184;-87
2022/05/23 03:52:57;;;;;;;2.57;2.33;;;13.50;99.90;;;;;;5119928;28;20716;-87
2022/05/23 03:55:23;;;;;;;3.43;2.60;;;;;;;;;;5129062;28;20216;-87
2022/05/23 03:57:49;;;;;;;4.97;2.60;;;;;;;;;;5127415;28;20208;-87
2022/05/23 04:00:16;;;;;;;3.30;2.50;;;;;;;;;;5124052;28;20274;-87
2022/05/23 04:02:42;;;;;;;4.27;2.47;;;;;;;;;;5118840;28;20171;-87
2022/05/23 04:05:11;;;;;;;2.77;2.40;;;13.60;99.90;;;;;;5118046;28;20192;-87
2022/05/23 04:07:38;;;;;;;3.10;2.57;;;13.60;99.90;;;;;;5118486;28;20186;-87
2022/05/23 04:10:10;;;;;;;4.90;2.50;;;13.60;99.90;;;;;;5119332;28;20544;-87
2022/05/23 04:12:36;;;;;;;3.30;2.50;;;13.70;99.90;;;;;;5118922;28;20176;-87
2022/05/23 04:15:04;;;;;;;4.83;2.20;;;13.70;99.90;;;;;;5124302;28;20646;-87
2022/05/23 04:17:30;;;;;;;3.43;2.50;;;13.90;99.90;;;;;;5133125;28;20196;-87
2022/05/23 04:19:56;;;;;;;4.13;2.50;;;13.70;99.90;;;;;;5120789;28;20168;-87
2022/05/23 04:22:22;;;;;;;4.47;2.40;;;;;;;;;;5116940;28;20538;-87
2022/05/23 04:24:49;;;;;;;3.83;2.70;;;;;;;;;;5116906;28;20196;-87
2022/05/23 04:27:15;;;;;;;3.00;2.70;;;13.90;99.90;;;;;;5116815;28;20167;-87
2022/05/23 04:29:41;;;;;;;3.27;2.60;;;;;;;;;;5115985;28;20179;-87
2022/05/23 04:35:12;;;;;;;2.83;2.60;;;;;;;;;;5115618;28;20184;-87
2022/05/23 04:37:38;;;;;;;3.70;2.53;;;14.10;99.90;;;;;;5116407;28;20211;-88
2022/05/23 04:40:04;;;;;;;4.60;2.57;;;14.00;99.90;;;;;;5115411;28;20172;-88
2022/05/23 04:42:30;;;;;;;5.93;2.80;;;14.50;99.90;;;;;;5117238;28;20263;-87
2022/05/23 04:44:56;;;;;;;4.27;2.87;;;;;;;;;;5116934;28;20286;-87
2022/05/23 04:50:07;;;;;;;4.20;2.93;;;;;;;;;;5122495;28;20560;-86
2022/05/23 04:52:33;;;;;;;3.63;2.70;;;14.20;99.90;;;;;;5122168;28;20183;-87
2022/05/23 04:54:59;;;;;;;4.87;2.77;;;;;;;;;;5121974;28;20195;-86
2022/05/23 04:57:25;;;;;;;4.17;2.47;;;;;;;;;;5121185;28;20195;-87
2022/05/23 04:59:51;;;;;;;4.60;2.93;;;;;;;;;;5120771;28;20171;-87
2022/05/23 05:02:17;;;;;;;4.10;3.23;;;;;;;;;;5120830;28;20175;-86
2022/05/23 05:04:43;;;;;;;4.90;3.00;;;;;;;;;;5122198;28;20191;-87
2022/05/23 05:07:09;;;;;;;4.53;3.30;;;;;;;;;;5121442;28;20240;-86
2022/05/23 05:09:35;;;;;;;5.67;3.40;;;;;;;;;;5123278;28;20645;-87
2022/05/23 05:12:01;;;;;;;6.80;3.30;;;;;;;;;;5121370;28;20550;-87
2022/05/23 05:14:27;;;;;;;5.33;3.00;;;;;;;;;;5120436;28;20211;-87
2022/05/23 05:16:54;;;;;;;10.70;3.43;;;;;;;;;;5121632;27;20278;-87
2022/05/23 05:19:20;;;;;;;3.60;3.10;;;15.10;99.90;;;;;;5119878;28;20204;-86
2022/05/23 05:21:46;;;;;;;7.23;3.20;;;;;;;;;;5120143;28;20180;-86
2022/05/23 05:24:12;;;;;;;5.10;2.93;;;;;;;;;;5120381;28;20185;-87
2022/05/23 05:26:38;;;;;;;6.03;3.10;;;14.80;99.90;;;;;;5120256;28;20204;-87
2022/05/23 05:29:04;;;;;;;5.97;3.20;;;;;;;;;;5120359;28;20175;-86
2022/05/23 05:31:30;;;;;;;6.33;3.73;;;;;;;;;;5122726;28;20184;-85
2022/05/23 05:34:09;;;;;;;4.43;3.40;;;15.30;99.90;;;;;;5121060;28;20232;-87
2022/05/23 05:36:41;;;;;;;8.00;3.43;;;15.20;99.90;;;;;;5128816;28;20620;-87
2022/05/23 05:39:08;;;;;;;4.63;2.93;;;15.30;99.90;;;;;;5130430;28;20171;-85
2022/05/23 05:41:40;;;;;;;5.87;3.23;;;15.60;99.90;;;;;;5124964;28;20177;-86
2022/05/23 05:44:10;;;;;;;6.83;3.30;;;15.40;99.90;;;;;;5121356;28;20178;-86
2022/05/23 05:46:41;;;;;;;6.97;3.07;;;15.40;99.90;;;;;;5122080;28;20194;-87
2022/05/23 05:49:12;;;;;;;6.13;3.27;;;15.60;99.90;;;;;;5122453;28;20162;-87
2022/05/23 05:51:40;;;;;;;5.73;3.30;;;15.40;99.90;;;;;;5119905;28;20262;-87
2022/05/23 05:54:08;;;;;;;6.80;3.40;;;15.70;99.90;;;;;;5122561;27;20217;-84
2022/05/23 05:56:34;;;;;;;8.03;3.10;;;;;;;;;;5121053;28;20195;-84
2022/05/23 05:59:00;;;;;;;7.13;2.87;;;;;;;;;;5118256;28;20218;-84
2022/05/23 06:01:26;;;;;;;6.37;2.80;;;;;;;;;;5119070;28;20173;-84
2022/05/23 06:03:52;;;;;;;7.63;2.97;;;16.00;99.90;;;;;;5119367;28;20176;-84
2022/05/23 06:11:47;;;;;;;5.03;2.80;;;;;;;;;;5120853;28;20168;-86
2022/05/23 06:14:13;;;;;;;5.90;3.50;;;;;;;;;;5119966;28;20191;-86
2022/05/23 06:16:39;;;;;;;6.53;2.90;;;;;;;;;;5118277;28;20204;-86
2022/05/23 06:19:06;;;;;;;4.93;3.13;;;16.50;99.90;;;;;;5119849;28;20179;-86
2022/05/23 06:21:32;;;;;;;5.97;2.90;;;16.60;99.90;;;;;;5118111;28;20251;-86
2022/05/23 06:23:58;;;;;;;6.17;3.23;;;;;;;;;;5118454;28;20737;-86
2022/05/23 06:26:28;;;;;;;11.90;3.43;;;16.80;99.90;;;;;;5118217;28;20195;-86
2022/05/23 06:28:55;;;;;;;7.27;3.30;;;;;;;;;;5119842;28;20161;-86
2022/05/23 06:31:21;;;;;;;7.70;3.47;;;17.00;99.90;;;;;;5119314;28;20180;-86
2022/05/23 06:33:47;;;;;;;6.83;3.43;;;16.90;99.90;;;;;;5118522;28;20546;-86
2022/05/23 06:36:13;;;;;;;5.47;2.90;;;17.00;99.90;;;;;;5117784;28;20701;-86
2022/05/23 06:38:41;;;;;;;6.47;3.70;;;17.00;99.90;;;;;;5119265;28;20236;-86
2022/05/23 06:41:09;;;;;;;8.90;3.40;;;17.20;99.90;;;;;;5118369;28;20243;-87
2022/05/23 06:43:36;;;;;;;8.77;3.13;;;17.30;99.90;;;;;;5119849;28;20177;-86
2022/05/23 06:46:02;;;;;;;6.87;3.70;;;17.20;99.90;;;;;;5117822;28;20771;-87
2022/05/23 06:48:29;;;;;;;5.83;3.40;;;17.20;99.90;;;;;;5120262;28;20217;-87
2022/05/23 06:50:55;;;;;;;15.07;3.43;;;17.20;99.90;;;;;;5121842;28;20182;-86
2022/05/23 06:53:23;;;;;;;16.30;3.50;;;17.20;99.90;;;;;;5120406;28;20181;-86
2022/05/23 06:55:50;;;;;;;9.63;3.63;;;17.00;99.90;;;;;;5121061;28;20687;-86
2022/05/23 06:58:17;;;;;;;6.47;3.10;;;;;;;;;;5121258;28;20177;-86
2022/05/23 07:00:43;;;;;;;7.50;3.60;;;17.00;99.90;;;;;;5121007;28;20183;-86
2022/05/23 07:03:09;;;;;;;4.07;3.13;;;;;;;;;;5121794;28;20646;-86
2022/05/23 07:13:54;;;;;;;9.30;3.10;;;16.70;99.90;;;;;;5126589;28;20201;-85
2022/05/23 07:16:19;;;;;;;4.27;3.60;;;16.60;99.90;;;;;;5130606;28;20225;-86
2022/05/23 07:18:46;;;;;;;11.57;3.13;;;16.70;99.90;;;;;;5131093;28;20181;-85
2022/05/23 07:21:12;;;;;;;11.43;3.30;;;;;;;;;;5119994;28;20183;-86
2022/05/23 07:23:38;;;;;;;14.53;3.40;;;;;;;;;;5119494;28;20201;-86
2022/05/23 07:26:06;;;;;;;5.77;2.90;;;16.80;99.90;;;;;;5119700;28;20676;-85
2022/05/23 07:28:32;;;;;;;4.37;3.23;;;16.60;99.90;;;;;;5120525;28;20244;-86
2022/05/23 07:30:58;;;;;;;5.30;3.10;;;16.70;99.90;;;;;;5120694;28;20190;-86
2022/05/23 07:33:24;;;;;;;4.13;3.43;;;16.70;99.90;;;;;;5120609;28;20177;-86
2022/05/23 07:35:54;;;;;;;4.77;3.10;;;16.70;99.90;;;;;;5120386;28;20252;-86
2022/05/23 07:38:20;;;;;;;3.80;3.03;;;;;;;;;;5120818;28;20553;-86
2022/05/23 07:40:52;;;;;;;7.17;3.33;;;16.80;99.90;;;;;;5120518;28;20177;-86
2022/05/23 07:43:18;;;;;;;5.03;3.47;;;16.90;99.90;;;;;;5122389;28;20341;-87
2022/05/23 07:45:45;;;;;;;4.50;3.50;;;;;;;;;;5118454;28;20221;-87
2022/05/23 07:48:11;;;;;;;5.77;2.93;;;;;;;;;;5117832;28;20177;-87
2022/05/23 07:50:37;;;;;;;5.73;3.73;;;17.20;99.90;;;;;;5117587;28;20634;-87
2022/05/23 08:01:17;;;;;;;5.40;3.37;;;17.90;99.90;;;;;;5128819;28;20235;-87
2022/05/23 08:03:46;;;;;;;4.43;3.67;;;18.20;99.90;;;;;;5120834;28;20672;-85
2022/05/23 08:06:12;;;;;;;6.07;3.23;;;18.50;99.90;;;;;;5122794;28;20207;-85
2022/05/23 08:08:38;;;;;;;3.93;3.57;;;18.70;99.90;;;;;;5122864;28;20179;-86
2022/05/23 08:11:08;;;;;;;7.73;3.70;;;18.90;99.90;;;;;;5122827;28;20186;-86
2022/05/23 08:13:38;;;;;;;4.33;3.27;;;19.20;99.90;;;;;;5121349;28;20203;-86
2022/05/23 08:16:04;;;;;;;6.03;3.20;;;19.50;99.90;;;;;;5120218;28;20210;-86
2022/05/23 08:18:30;;;;;;;7.60;3.70;;;19.80;99.90;;;;;;5120181;28;20629;-86
2022/05/23 08:20:56;;;;;;;6.23;3.53;;;20.00;99.90;;;;;;5121535;28;20186;-86
2022/05/23 08:23:22;;;;;;;4.77;3.13;;;20.20;99.90;;;;;;5127048;28;20171;-86
2022/05/23 08:25:48;;;;;;;7.57;3.67;;;20.50;99.90;;;;;;5126424;28;20256;-86
2022/05/23 08:28:13;;;;;;;4.20;3.30;;;20.70;99.90;;;;;;5125413;28;20179;-86
2022/05/23 08:30:40;;;;;;;8.20;3.47;;;20.80;99.90;;;;;;5125270;28;20205;-86
2022/05/23 08:33:06;;;;;;;6.27;3.43;;;20.80;99.90;;;;;;5126871;28;20179;-86
2022/05/23 08:35:32;;;;;;;5.33;3.57;;;20.80;99.90;;;;;;5125969;28;20599;-86
2022/05/23 08:37:58;;;;;;;5.80;3.67;;;20.90;99.90;;;;;;5125854;28;20215;-86
2022/05/23 08:40:35;;;;;;;8.50;4.10;;;21.00;99.90;;;;;;5126059;28;20291;-86
2022/05/23 08:43:05;;;;;;;6.67;3.73;;;21.30;99.90;;;;;;5127349;28;20230;-86
2022/05/23 08:45:42;;;;;;;4.63;3.73;;;21.40;99.90;;;;;;5126055;28;20192;-87
2022/05/23 08:48:28;;;;;;;11.03;3.73;;;21.30;99.90;;;;;;5129834;28;20262;-85
2022/05/23 08:50:59;;;;;;;4.77;3.50;;;21.30;99.90;;;;;;5136098;28;20175;-85
2022/05/23 08:53:34;;;;;;;4.03;3.60;;;21.00;99.90;;;;;;5131974;28;20313;-86
2022/05/23 08:56:11;;;;;;;10.43;3.70;;;20.90;99.90;;;;;;5121734;28;20309;-86
2022/05/23 08:58:49;;;;;;;7.60;3.40;;;20.90;99.90;;;;;;5121601;28;20160;-86
2022/05/23 09:01:31;;;;;;;8.27;3.93;;;21.10;99.90;;;;;;5123931;28;20178;-86
2022/05/23 09:04:33;;;;;;;7.90;3.90;;;21.30;99.90;;;;;;5125171;28;20258;-86
2022/05/23 09:07:01;;;;;;;8.73;3.30;;;21.60;99.90;;;;;;5101998;28;20183;-86
2022/05/23 09:09:31;;;;;;;10.07;3.90;;;21.90;99.90;;;;;;5125739;28;20205;-86
2022/05/23 09:12:12;;;;;;;7.20;3.90;;;22.00;99.90;;;;;;5125831;28;20180;-86
2022/05/23 09:14:38;;;;;;;7.07;3.70;;;22.20;99.90;;;;;;5134013;28;20221;-84
2022/05/23 09:17:09;;;;;;;6.97;3.60;;;22.20;99.90;;;;;;5136929;28;20207;-85
2022/05/23 09:19:46;;;;;;;7.17;3.50;;;22.40;99.90;;;;;;5125641;28;20160;-86
2022/05/23 09:22:30;;;;;;;6.40;3.40;;;22.50;99.90;;;;;;5126224;27;20168;-85
2022/05/23 09:24:58;;;;;;;7.70;3.20;;;22.80;99.90;;;;;;5125934;28;20711;-86
2022/05/23 09:27:37;;;;;;;7.70;3.00;;;23.10;99.90;;;;;;5124728;28;20206;-85
2022/05/23 09:30:09;;;;;;;8.17;3.07;;;23.50;99.90;;;;;;5124533;28;20180;-85
2022/05/23 09:32:38;;;;;;;10.40;3.63;;;23.80;99.90;;;;;;5124471;28;20234;-85
2022/05/23 09:35:18;;;;;;;6.10;2.80;;;24.00;99.90;;;;;;5125654;28;20195;-85
2022/05/23 09:37:46;;;;;;;5.50;3.03;;;24.20;99.90;;;;;;5124419;28;20216;-84
2022/05/23 09:40:42;;;;;;;4.53;3.30;;;24.40;99.90;;;;;;5124307;28;20188;-85
2022/05/23 09:49:18;;;;;;;8.23;3.43;;;24.90;99.90;;;;;;5106482;28;20189;-84
2022/05/23 09:51:54;;;;;;;6.20;3.50;;;25.20;99.90;;;;;;5123010;28;20231;-85
2022/05/23 09:54:38;;;;;;;6.40;3.03;;;25.40;99.90;;;;;;5123581;28;20172;-85
2022/05/23 09:57:29;;;;;;;5.93;3.20;;;25.60;99.90;;;;;;5123526;28;20193;-84
2022/05/23 10:00:02;;;;;;;6.70;2.83;;;25.80;99.90;;;;;;5122352;28;20219;-85
2022/05/23 10:02:35;;;;;;;4.87;3.40;;;26.00;99.90;;;;;;5123084;28;20160;-85
2022/05/23 10:05:01;;;;;;;5.33;3.17;;;26.20;99.90;;;;;;5123643;28;20219;-86
2022/05/23 10:07:38;;;;;;;6.97;2.90;;;26.30;99.90;;;;;;5124371;28;20187;-85
2022/05/23 10:10:21;;;;;;;4.97;3.00;;;26.30;99.90;;;;;;5124880;28;20182;-86
2022/05/23 10:12:48;;;;;;;5.40;2.90;;;26.40;99.90;;;;;;5123810;28;20191;-86
2022/05/23 10:15:25;;;;;;;7.13;2.90;;;26.60;99.90;;;;;;5123258;28;20226;-86
2022/05/23 10:18:23;;;;;;;5.03;2.90;;;26.90;99.90;;;;;;5124080;28;20198;-85
2022/05/23 10:20:49;;;;;;;4.00;2.60;;;27.20;99.90;;;;;;5116306;28;20195;-86
2022/05/23 10:23:20;;;;;;;5.83;3.13;;;27.30;99.90;;;;;;5124794;28;20547;-86
2022/05/23 10:26:08;;;;;;;9.60;3.03;;;27.40;99.90;;;;;;5129679;28;20549;-84
2022/05/23 10:28:48;;;;;;;10.00;3.93;;;27.50;99.90;;;;;;5132686;28;20177;-84
2022/05/23 10:31:29;;;;;;;7.27;2.90;;;27.60;99.90;;;;;;5131568;28;20176;-84
2022/05/23 10:34:19;;;;;;;7.57;3.00;;;27.70;99.90;;;;;;5130444;28;20232;-85
2022/05/23 10:36:49;;;;;;;7.00;3.00;;;28.10;99.90;;;;;;5120162;28;20184;-84
2022/05/23 10:42:07;;;;;;;4.37;2.80;;;28.50;99.90;;;;;;5119912;28;20166;-85
2022/05/23 10:44:56;;;;;;;5.17;3.03;;;28.60;99.90;;;;;;5120773;28;20174;-85
2022/05/23 10:47:49;;;;;;;6.23;2.80;;;28.70;99.90;;;;;;5120696;28;20176;-85
2022/05/23 10:50:32;;;;;;;7.87;2.87;;;28.80;99.90;;;;;;5118278;28;20161;-85
2022/05/23 10:53:09;;;;;;;4.10;2.67;;;28.50;99.90;;;;;;5119153;28;20173;-84
2022/05/23 10:56:09;;;;;;;4.73;3.00;;;28.60;99.90;;;;;;5119618;28;20225;-82
2022/05/23 10:58:56;;;;;;;4.37;2.93;;;28.60;99.90;;;;;;5121918;28;20288;-83
2022/05/23 11:02:09;;;;;;;5.83;2.80;;;28.80;99.90;;;;;;5121170;28;20184;-83
2022/05/23 11:05:14;;;;;;;5.83;3.13;;;28.90;99.90;;;;;;5062982;28;20189;-83
2022/05/23 11:07:56;;;;;;;4.60;2.90;;;29.60;99.90;;;;;;5100571;28;20276;-83
2022/05/23 11:10:47;;;;;;;4.73;2.80;;;30.10;99.90;;;;;;5121075;28;20183;-84
2022/05/23 11:13:13;;;;;;;5.03;3.20;;;30.20;99.90;;;;;;5106505;28;20206;-84
2022/05/23 11:16:01;;;;;;;5.80;3.13;;;29.80;99.90;;;;;;5122809;28;20197;-84
2022/05/23 11:18:59;;;;;;;5.63;3.07;;;29.30;99.90;;;;;;5124285;28;20566;-81
2022/05/23 11:22:18;;;;;;;5.93;3.30;;;29.00;99.90;;;;;;5100961;28;20197;-81
2022/05/23 11:24:56;;;;;;;7.37;2.90;;;28.90;99.90;;;;;;5098123;28;20220;-82
2022/05/23 11:35:42;;;;;;;6.50;3.07;;;29.30;99.90;;;;;;5123145;28;20235;-82
2022/05/23 11:38:09;;;;;;;3.80;2.83;;;29.40;99.90;;;;;;5122211;28;20205;-82
2022/05/23 11:40:38;;;;;;;7.03;3.00;;;29.10;99.90;;;;;;5123790;28;20202;-82
2022/05/23 11:43:09;;;;;;;9.50;3.10;;;28.60;99.90;;;;;;5130014;28;20171;-81
2022/05/23 11:45:59;;;;;;;6.73;2.93;;;28.30;99.90;;;;;;5124552;28;20257;-82
2022/05/23 11:48:41;;;;;;;6.93;3.30;;;28.30;99.90;;;;;;5119818;28;20171;-82
2022/05/23 11:51:36;;;;;;;5.60;3.07;;;28.20;99.90;;;;;;5122261;28;20187;-82
2022/05/23 11:54:10;;;;;;;5.33;3.00;;;27.90;99.90;;;;;;5117255;28;20178;-81
2022/05/23 11:57:12;;;;;;;9.27;3.70;;;28.40;99.90;;;;;;5123000;28;20205;-82
2022/05/23 11:59:38;;;;;;;10.77;3.07;;;29.70;99.90;;;;;;5127579;28;20175;-82
2022/05/23 12:02:06;;;;;;;9.60;3.07;;;30.20;99.90;;;;;;5126688;28;20174;-82
2022/05/23 12:04:57;;;;;;;13.53;3.70;;;31.00;99.90;;;;;;5131938;28;20171;-81
2022/05/23 12:07:34;;;;;;;6.10;3.30;;;31.50;99.90;;;;;;5135588;28;20242;-81
2022/05/23 12:10:21;;;;;;;10.67;3.30;;;32.30;99.90;;;;;;5127585;28;20168;-83
2022/05/23 12:12:50;;;;;;;6.23;3.10;;;32.50;99.00;;;;;;5122634;28;20697;-83
2022/05/23 12:15:47;;;;;;;5.40;2.77;;;32.80;99.30;;;;;;5124389;27;20243;-83
2022/05/23 12:18:21;;;;;;;10.83;3.47;;;33.20;97.40;;;;;;5123961;28;20199;-83
2022/05/23 12:20:53;;;;;;;9.93;3.40;;;33.40;93.40;;;;;;5124049;28;20254;-83
2022/05/23 12:23:41;;;;;;;8.63;2.97;;;33.30;98.40;;;;;;5123202;28;20630;-83
2022/05/23 12:26:23;;;;;;;10.90;3.57;;;33.30;96.30;;;;;;5123991;28;20204;-83
2022/05/23 12:29:19;;;;;;;8.27;3.50;;;33.30;90.20;;;;;;5125057;28;20178;-83
2022/05/23 12:32:27;;;;;;;6.43;2.97;;;32.80;91.60;;;;;;5124931;28;20167;-83
2022/05/23 12:34:56;;;;;;;8.13;3.43;;;32.30;93.50;;;;;;5094049;28;20247;-83
2022/05/23 12:37:36;;;;;;;7.77;3.87;;;32.60;94.80;;;;;;5124813;28;20195;-85
2022/05/23 12:40:08;;;;;;;8.60;3.57;;;32.80;93.70;;;;;;5124671;28;20163;-83
2022/05/23 12:42:46;;;;;;;9.00;3.53;;;32.70;93.10;;;;;;5123887;28;20168;-83
2022/05/23 12:45:33;;;;;;;8.43;3.47;;;32.70;94.60;;;;;;5122977;28;20207;-84
2022/05/23 12:48:17;;;;;;;7.57;3.33;;;32.80;90.60;;;;;;5123110;28;20213;-84
2022/05/23 12:51:00;;;;;;;8.43;3.70;;;33.40;92.70;;;;;;5123974;28;20299;-84
2022/05/23 12:53:59;;;;;;;7.27;3.47;;;32.10;91.90;;;;;;5124500;28;20572;-84
2022/05/23 12:56:43;;;;;;;12.90;3.50;;;30.20;91.70;;;;;;5121994;28;20208;-83
2022/05/23 12:59:37;;;;;;;7.03;3.57;;;29.00;93.00;;;;;;5130332;28;20184;-83
2022/05/23 13:02:30;;;;;;;5.60;3.30;;;27.80;93.80;;;;;;5128103;28;20156;-82
2022/05/23 13:05:20;;;;;;;8.47;3.70;;;27.10;94.60;;;;;;5124000;28;20208;-82
2022/05/23 13:07:52;;;;;;;8.33;3.27;;;27.60;95.40;;;;;;5122067;28;20188;-82
2022/05/23 13:10:27;;;;;;;8.80;3.30;;;29.00;96.80;;;;;;5122703;27;20709;-82
2022/05/23 13:13:08;;;;;;;12.57;3.70;;;29.10;95.30;;;;;;5121640;28;20251;-83
2022/05/23 13:15:35;;;;;;;12.17;3.47;;;28.10;94.20;;;;;;5123227;28;20211;-84
2022/05/23 13:23:35;;;;;;;8.77;3.13;;;26.70;94.10;;;;;;5125692;28;20261;-83
2022/05/23 13:26:10;;;;;;;8.50;3.43;;;25.80;95.80;;;;;;5123219;28;20196;-83
2022/05/23 13:28:47;;;;;;;10.00;3.17;;;24.90;97.00;;;;;;5124895;28;20191;-83
2022/05/23 13:31:26;;;;;;;7.50;3.53;;;24.40;98.20;;;;;;5123620;28;20181;-85
2022/05/23 13:33:55;;;;;;;8.43;4.87;;;24.00;99.90;;;;;;5124276;28;20262;-84
2022/05/23 13:36:23;;;;;;;7.07;3.70;;;23.80;99.90;;;;;;5124782;28;20533;-83
2022/05/23 13:39:04;;;;;;;5.13;3.57;;;23.50;99.90;;;;;;5124548;28;20184;-83
2022/05/23 13:41:31;;;;;;;12.20;4.10;;;23.30;99.90;;;;;;5124891;28;20186;-86
2022/05/23 13:43:58;;;;;;;12.17;4.20;;;23.20;99.90;;;;;;5129582;28;20173;-84
2022/05/23 13:46:29;;;;;;;6.30;4.27;;;23.10;99.90;;;;;;5130177;28;20197;-85
2022/05/23 13:49:02;;;;;;;8.20;4.40;;;22.90;99.90;;;;;;5128022;28;20189;-85
2022/05/23 13:51:52;;;;;;;7.33;4.33;;;22.80;99.90;;;;;;5124803;28;20175;-84
2022/05/23 13:54:18;;;;;;;7.60;4.37;;;;;;;;;;5125561;28;20165;-83
2022/05/23 13:56:48;;;;;;;8.70;4.37;;;22.60;99.90;;;;;;5124841;28;20227;-84
2022/05/23 13:59:22;;;;;;;14.30;4.90;;;22.40;99.90;;;;;;5125564;28;20173;-83
2022/05/23 14:01:53;;;;;;;11.17;4.30;;;22.20;99.90;;;;;;5126404;28;20163;-84
2022/05/23 14:04:23;;;;;;;10.10;4.30;;;22.10;99.90;;;;;;5125638;28;20175;-84
2022/05/23 14:06:58;;;;;;;10.07;3.70;;;22.00;99.90;;;;;;5126001;28;20176;-84
2022/05/23 14:09:25;;;;;;;12.93;3.43;;;21.90;99.90;;;;;;5125549;28;20171;-84
2022/05/23 14:11:56;;;;;;;12.37;3.90;;;21.80;99.90;;;;;;5126120;28;20179;-85
2022/05/23 14:14:34;;;;;;;7.87;3.67;;;21.70;99.90;;;;;;5125917;28;20191;-85
2022/05/23 14:17:03;;;;;;;13.10;4.00;;;21.60;99.90;;;;;;5126540;28;20608;-84
2022/05/23 14:19:43;;;;;;;13.70;4.00;;;21.50;99.90;;;;;;5126771;28;20175;-84
2022/05/23 14:22:18;;;;;;;10.97;4.20;;;21.40;99.90;;;;;;5128360;28;20160;-84
2022/05/23 14:24:46;;;;;;;12.60;4.57;;;21.30;99.90;;;;;;5123881;28;20197;-83
2022/05/23 14:27:26;;;;;;;11.73;4.43;;;21.30;99.90;;;;;;5121941;28;20178;-83
2022/05/23 14:30:17;;;;;;;11.33;5.10;;;21.30;99.90;;;;;;5119954;28;20175;-83
2022/05/23 14:33:01;;;;;;;6.77;4.10;;;21.30;99.90;;;;;;5120765;28;20168;-84
2022/05/23 14:35:33;;;;;;;9.43;4.80;;;21.20;99.90;;;;;;5122338;28;20253;-84